Latest Coastal Weather Observations for Maria Island

IDT60701

Issued at 12:42 pm EDT Tuesday 2 March 2021 (issued every 10 minutes, with the page automatically refreshed every 10 minutes)

About coastal observations | Map of coastal stations | Coastal observations for TAS | Marine services | Other Formats
Station Details ID: 092124 Name: MARIA ISLAND (POINT LESUEUR) Lat: -42.66 Lon: 148.02 Height: 28.0 m
Data from the previous 72 hours. | See also: Recent months at Maria Island
Date/Time
EDT
Wind Sea
Height
m
Swell Vis
km
Cloud Weather Temp
°C
Press
MSL
hPa
Rain since
9am
mm
Dir  Spd
kts
Gust
kts
Height
m
Period
s
Dir
02/12:38pm SSW 22 33 - - - - - - - 12.6 1012.5 0.2
02/12:30pm SSW 23 31 - - - - - - - 11.9 1012.6 0.2
02/12:07pm SSW 23 37 - - - - - - - 12.2 1012.2 0.0
02/12:00pm SW 23 29 - - - - - - - 12.1 1012.5 0.0
02/11:30am SW 28 36 - - - - - - - 11.9 1012.3 0.0
02/11:00am SW 28 38 - - - - - - - 12.3 1012.0 0.0
02/10:49am SW 25 35 - - - - - - - 13.2 1012.1 0.0
02/10:30am SW 32 41 - - - - - - - 12.4 1011.8 0.0
02/10:08am SW 31 41 - - - - - - - 12.7 1011.4 0.0
02/10:00am SW 32 40 - - - - - - - 12.4 1011.3 0.0
02/09:30am SW 32 40 - - - - - - - 12.2 1011.1 0.0
02/09:00am SW 25 33 - - - - - - Rain 11.1 1010.8 28.8
02/08:30am SW 31 37 - - - - - - - 10.9 1010.4 28.6
02/08:12am SW 27 37 - - - - - - - 11.2 1010.1 28.6
02/08:00am SW 28 36 - - - - - - - 11.2 1010.0 28.6
02/07:31am SW 27 37 - - - - - - - 11.5 1009.5 28.6
02/07:30am SW 28 37 - - - - - - - 11.6 1009.5 28.6
02/07:00am SW 29 37 - - - - - - - 11.2 1009.0 28.6
02/06:30am SW 31 40 - - - - - - - 11.7 1008.5 28.2
02/06:00am SW 29 37 - - - - - - - 12.3 1008.0 28.2
02/05:30am SW 30 38 - - - - - - - 12.3 1007.3 28.2
02/05:25am SW 31 42 - - - - - - - 12.2 1007.3 28.2
02/05:00am SW 33 39 - - - - - - - 11.7 1006.9 28.2
02/04:30am SSW 38 44 - - - - - - - 13.0 1006.2 28.2
02/04:06am SW 32 44 - - - - - - - 13.1 1005.8 28.0
02/04:00am SW 34 43 - - - - - - - 13.1 1005.9 28.0
02/03:53am SW 32 43 - - - - - - - 13.0 1005.7 28.0
02/03:30am SW 31 40 - - - - - - - 12.6 1005.3 28.0
02/03:13am SW 33 44 - - - - - - - 12.4 1004.9 27.8
02/03:00am SW 36 45 - - - - - - Rain 12.6 1004.6 27.8
02/02:30am SW 39 48 - - - - - - - 12.4 1003.8 27.2
02/02:00am SW 35 44 - - - - - - - 12.8 1003.2 27.0
02/01:32am SW 31 41 - - - - - - - 12.6 1002.7 25.2
02/01:30am SW 30 39 - - - - - - - 12.4 1002.9 25.0
02/01:01am SW 27 38 - - - - - - - 12.6 1002.7 24.0
02/01:00am SW 26 34 - - - - - - - 12.6 1002.7 24.0
02/12:30am SW 29 39 - - - - - - - 13.0 1002.0 23.8
02/12:27am SW 28 38 - - - - - - - 13.1 1002.0 23.8
02/12:00am WSW 27 33 - - - - - - Recent precip. 12.7 1001.9 23.8
 
Date/Time
EDT
Wind Sea
Height
m
Swell Vis
km
Cloud Weather Temp
°C
Press
MSL
hPa
Rain since
9am
mm
Dir  Spd
kts
Gust
kts
Height
m
Period
s
Dir
01/11:30pm WSW 24 35 - - - - - - - 12.8 1001.7 23.4
01/11:08pm WSW 22 33 - - - - - - - 12.3 1001.6 23.4
01/11:00pm WSW 20 29 - - - - - - - 12.2 1001.6 23.4
01/10:33pm WSW 22 33 - - - - - - - 12.8 1001.2 23.2
01/10:30pm WSW 23 29 - - - - - - - 12.8 1001.2 23.2
01/10:14pm WSW 21 33 - - - - - - - 13.0 1001.0 23.2
01/10:00pm WSW 19 27 - - - - - - - 12.9 1001.3 23.2
01/09:49pm WSW 15 25 - - - - - - - 13.1 1001.1 23.2
01/09:30pm W 11 20 - - - - - - - 13.2 1001.0 23.2
01/09:02pm WSW 16 27 - - - - - - - 13.0 1000.9 23.2
01/09:00pm WSW 15 22 - - - - - - - 13.1 1001.1 23.2
01/08:30pm WSW 15 19 - - - - - - - 13.4 1001.1 23.2
01/08:00pm WSW 13 19 - - - - - - - 13.5 1000.5 23.2
01/07:30pm WSW 14 19 - - - - - - - 14.0 1000.2 23.0
01/07:00pm SW 13 17 - - - - - - - 14.1 1000.1 23.0
01/06:30pm SW 17 21 - - - - - - - 14.1 999.6 23.0
01/06:00pm SSW 24 30 - - - - - - Recent precip. 14.1 999.4 23.0
01/05:36pm SSW 14 29 - - - - - - - 13.9 999.7 22.4
01/05:30pm SSW 9 11 - - - - - - - 14.3 1000.0 22.2
01/05:00pm WNW 8 11 - - - - - - - 13.8 1000.0 20.8
01/04:30pm NNW 7 11 - - - - - - - 13.2 1000.5 19.4
01/04:14pm ESE 10 29 - - - - - - - 13.4 1000.3 16.8
01/04:00pm E 12 14 - - - - - - - 15.1 998.7 15.2
01/03:30pm E 11 14 - - - - - - - 15.3 999.7 15.2
01/03:00pm NNE 12 15 - - - - - - Recent precip. 16.6 1000.3 15.2
01/02:30pm NW 9 15 - - - - - - - 14.6 1001.7 10.2
01/02:00pm SE 6 7 - - - - - - - 18.2 1001.8 0.0
01/01:30pm SSE 5 7 - - - - - - - 18.4 1002.4 0.0
01/01:00pm SE 4 5 - - - - - - - 17.9 1002.9 0.0
01/12:30pm S 4 5 - - - - - - - 18.3 1003.6 0.0
01/12:00pm SW 2 4 - - - - - - - 19.0 1004.0 0.0
01/11:30am NW 3 4 - - - - - - - 19.8 1004.2 0.0
01/11:00am NNE 4 5 - - - - - - - 18.9 1004.9 0.0
01/10:30am NNW 3 4 - - - - - - - 18.6 1005.1 0.0
01/10:00am NW 6 7 - - - - - - - 17.6 1005.2 0.0
01/09:30am NW 4 6 - - - - - - - 17.0 1005.5 0.0
01/09:00am WNW 3 4 - - - - - - - 16.6 1005.7 0.0
01/08:30am NW 5 8 - - - - - - - 16.6 1005.7 0.0
01/08:00am NNW 7 9 - - - - - - - 16.6 1005.9 0.0
01/07:30am NW 8 9 - - - - - - - 16.6 1006.1 0.0
01/07:00am N 11 13 - - - - - - - 16.6 1006.0 0.0
01/06:30am N 11 13 - - - - - - - 16.7 1006.0 0.0
01/06:00am N 10 12 - - - - - - - 16.4 1006.0 0.0
01/05:30am N 13 15 - - - - - - - 16.7 1006.2 0.0
01/05:00am N 13 15 - - - - - - - 16.7 1006.7 0.0
01/04:30am N 12 14 - - - - - - - 16.5 1006.8 0.0
01/04:00am N 13 15 - - - - - - - 16.6 1007.1 0.0
01/03:30am N 9 12 - - - - - - - 16.4 1007.3 0.0
01/03:00am NNE 10 12 - - - - - - - 16.6 1007.5 0.0
01/02:30am NNE 8 10 - - - - - - - 16.7 1007.9 0.0
01/02:00am N 7 10 - - - - - - - 16.6 1008.4 0.0
01/01:30am ENE 2 3 - - - - - - - 16.4 1008.6 0.0
01/01:00am NE 7 8 - - - - - - - 16.4 1008.9 0.0
01/12:30am NNE 8 9 - - - - - - - 16.9 1009.6 0.0
01/12:00am NE 4 5 - - - - - - - 16.7 1010.0 0.0
 
Date/Time
EDT
Wind Sea
Height
m
Swell Vis
km
Cloud Weather Temp
°C
Press
MSL
hPa
Rain since
9am
mm
Dir  Spd
kts
Gust
kts
Height
m
Period
s
Dir
28/11:30pm NNE 6 8 - - - - - - - 16.8 1010.2 0.0
28/11:00pm NNE 4 5 - - - - - - - 16.8 1010.4 0.0
28/10:30pm NE 2 3 - - - - - - - 16.8 1010.7 0.0
28/10:00pm NE 4 5 - - - - - - - 16.9 1010.9 0.0
28/09:30pm NNE 6 7 - - - - - - - 17.0 1011.0 0.0
28/09:00pm N 5 6 - - - - - - - 17.1 1010.8 0.0
28/08:30pm N 5 7 - - - - - - - 17.1 1010.7 0.0
28/08:00pm SSE 2 3 - - - - - - - 17.1 1010.6 0.0
28/07:30pm E 7 9 - - - - - - - 17.2 1010.5 0.0
28/07:00pm E 7 9 - - - - - - - 17.6 1010.3 0.0
28/06:30pm ESE 10 13 - - - - - - - 17.3 1010.3 0.0
28/06:00pm E 10 13 - - - - - - - 18.0 1010.2 0.0
28/05:30pm ESE 10 12 - - - - - - - 18.4 1010.2 0.0
28/05:00pm ESE 10 12 - - - - - - - 18.3 1010.5 0.0
28/04:30pm ESE 12 14 - - - - - - - 18.1 1010.2 0.0
28/04:00pm ESE 13 15 - - - - - - - 18.4 1010.1 0.0
28/03:30pm ESE 11 13 - - - - - - - 19.1 1010.5 0.0
28/03:00pm ESE 10 12 - - - - - - - 19.1 1010.9 0.0
28/02:30pm ESE 10 11 - - - - - - - 19.0 1011.2 0.0
28/02:00pm ESE 10 12 - - - - - - - 19.0 1011.5 0.0
28/01:30pm ESE 11 13 - - - - - - - 18.9 1011.7 0.0
28/01:00pm ESE 12 14 - - - - - - - 18.9 1011.9 0.0
28/12:30pm ESE 10 12 - - - - - - - 18.8 1012.3 0.0
28/12:00pm E 9 11 - - - - - - - 18.9 1012.5 0.0
28/11:30am ESE 5 8 - - - - - - - 18.8 1012.9 0.0
28/11:00am SSE 4 6 - - - - - - - 17.5 1013.2 0.0
28/10:30am SSE 3 5 - - - - - - - 17.4 1013.3 0.0
28/10:00am WSW 1 3 - - - - - - - 17.3 1013.3 0.0
28/09:30am SW 2 3 - - - - - - - 16.1 1013.5 0.0
28/09:00am NW 2 3 - - - - - - - 16.3 1013.3 0.0
28/08:30am NNE 2 3 - - - - - - - 15.6 1013.2 0.0
28/08:00am E 2 3 - - - - - - - 15.4 1013.0 0.0
28/07:30am ENE 1 1 - - - - - - - 14.7 1013.0 0.0
28/07:00am NW 1 3 - - - - - - - 13.9 1012.8 0.0
28/06:30am W 1 2 - - - - - - - 14.9 1012.7 0.0
28/06:00am W 4 4 - - - - - - - 14.9 1013.1 0.0
28/05:30am W 5 7 - - - - - - - 15.0 1013.1 0.0
28/05:00am W 8 9 - - - - - - - 15.0 1013.1 0.0
28/04:30am WNW 7 8 - - - - - - - 15.0 1013.3 0.0
28/04:00am SW 3 4 - - - - - - - 15.3 1013.2 0.0
28/03:30am CALM 0 2 - - - - - - - 15.2 1013.1 0.0
28/03:00am CALM 0 0 - - - - - - - 14.9 1013.1 0.0
28/02:30am ENE 1 1 - - - - - - - 14.7 1013.3 0.0
28/02:00am ESE 4 5 - - - - - - - 15.2 1013.4 0.0
28/01:30am S 5 6 - - - - - - - 15.5 1013.8 0.0
28/01:00am CALM 0 0 - - - - - - - 15.5 1014.0 0.0
28/12:30am SE 2 3 - - - - - - - 15.5 1014.1 0.0
28/12:00am SE 2 3 - - - - - - - 15.5 1014.2 0.0
 
Date/Time
EDT
Wind Sea
Height
m
Swell Vis
km
Cloud Weather Temp
°C
Press
MSL
hPa
Rain since
9am
mm
Dir  Spd
kts
Gust
kts
Height
m
Period
s
Dir
27/11:30pm SSE 2 4 - - - - - - - 15.5 1014.3 0.0
27/11:00pm SE 3 5 - - - - - - - 15.3 1014.4 0.0
27/10:30pm SE 5 6 - - - - - - - 15.2 1014.4 0.0
27/10:00pm SE 4 5 - - - - - - - 15.3 1014.6 0.0
27/09:30pm SE 3 5 - - - - - - - 15.2 1014.6 0.0
27/09:00pm ESE 4 6 - - - - - - - 15.1 1014.6 0.0
27/08:30pm ESE 5 6 - - - - - - - 15.0 1014.3 0.0
27/08:00pm ESE 5 6 - - - - - - - 15.2 1014.1 0.0
27/07:30pm SE 5 6 - - - - - - - 15.7 1013.8 0.0
27/07:00pm SE 7 9 - - - - - - - 16.0 1013.6 0.0
27/06:30pm ESE 8 10 - - - - - - - 16.2 1013.5 0.0
27/06:00pm ESE 8 11 - - - - - - - 16.4 1013.5 0.0
27/05:30pm SE 8 11 - - - - - - - 16.8 1013.3 0.0
27/05:00pm SE 8 11 - - - - - - - 17.2 1013.4 0.0
27/04:30pm SE 8 11 - - - - - - - 17.7 1013.4 0.0
27/04:00pm SE 8 11 - - - - - - - 17.6 1013.5 0.0
27/03:30pm SSE 6 8 - - - - - - - 18.5 1013.5 0.0
27/03:00pm S 6 8 - - - - - - - 18.2 1013.7 0.0
27/02:30pm S 7 9 - - - - - - - 18.4 1013.9 0.0
27/02:00pm S 7 8 - - - - - - - 18.2 1014.4 0.0
27/01:30pm S 9 10 - - - - - - - 17.3 1014.5 0.0
27/01:00pm SSW 8 10 - - - - - - - 17.5 1014.8 0.0

Other formats

Comma delimited format used in spreadsheet applications
http://www.bom.gov.au/fwo/IDT60701/IDT60701.95988.axf

JavaScript Object Notation format (JSON) in row-major order
http://www.bom.gov.au/fwo/IDT60701/IDT60701.95988.json

Data quality

Most of these data are generated automatically and are frequently updated. Quality checks on data are not normally performed. It is possible for incorrect values to appear. Refer to information at About Latest Weather Observations and please check the disclaimer before using these data.